createdAt,value
2018-12-16T00:01:15.402Z,-1.28
2018-12-16T00:03:42.795Z,-1.21
2018-12-16T00:06:10.230Z,-1.28
2018-12-16T00:08:37.785Z,-1.34
2018-12-16T00:11:05.182Z,-1.45
2018-12-16T00:13:32.698Z,-1.41
2018-12-16T00:16:00.090Z,-1.45
2018-12-16T00:18:27.517Z,-1.50
2018-12-16T00:20:54.918Z,-1.50
2018-12-16T00:23:22.318Z,-1.46
2018-12-16T00:25:49.699Z,-1.48
2018-12-16T00:28:17.137Z,-1.52
2018-12-16T00:30:44.590Z,-1.48
2018-12-16T00:33:11.991Z,-1.48
2018-12-16T00:35:39.472Z,-1.46
2018-12-16T00:38:06.965Z,-1.42
2018-12-16T00:40:34.387Z,-1.48
2018-12-16T00:43:01.852Z,-1.50
2018-12-16T00:45:29.258Z,-1.54
2018-12-16T00:47:56.675Z,-1.56
2018-12-16T00:50:24.151Z,-1.54
2018-12-16T00:52:51.606Z,-1.48
2018-12-16T00:55:19.067Z,-1.42
2018-12-16T00:57:46.470Z,-1.46
2018-12-16T01:00:14.373Z,-1.48
2018-12-16T01:02:42.587Z,-1.47
2018-12-16T01:05:10.491Z,-1.42
2018-12-16T01:07:37.892Z,-1.47
2018-12-16T01:10:07.286Z,-1.48
2018-12-16T01:12:34.734Z,-1.45
2018-12-16T01:15:02.139Z,-1.48
2018-12-16T01:17:29.651Z,-1.48
2018-12-16T01:19:57.109Z,-1.44
2018-12-16T01:22:24.558Z,-1.46
2018-12-16T01:24:51.954Z,-1.39
2018-12-16T01:27:19.350Z,-1.37
2018-12-16T01:29:46.936Z,-1.40
2018-12-16T01:32:14.410Z,-1.38
2018-12-16T01:34:42.200Z,-1.43
2018-12-16T01:37:09.830Z,-1.44
2018-12-16T01:39:37.267Z,-1.48
2018-12-16T01:42:04.725Z,-1.42
2018-12-16T01:44:32.136Z,-1.43
2018-12-16T01:46:59.537Z,-1.48
2018-12-16T01:49:26.989Z,-1.48
2018-12-16T01:51:54.391Z,-1.35
2018-12-16T01:54:21.806Z,-1.41
2018-12-16T01:56:49.216Z,-1.46
2018-12-16T01:59:16.628Z,-1.46
2018-12-16T02:01:45.945Z,-1.43
2018-12-16T02:04:13.342Z,-1.43
2018-12-16T02:06:40.774Z,-1.47
2018-12-16T02:09:10.098Z,-1.44
2018-12-16T02:11:37.687Z,-1.50
2018-12-16T02:14:05.103Z,-1.51
2018-12-16T02:16:32.590Z,-1.52
2018-12-16T02:19:00.061Z,-1.53
2018-12-16T02:21:27.454Z,-1.50
2018-12-16T02:23:54.866Z,-1.53
2018-12-16T02:26:22.326Z,-1.56
2018-12-16T02:28:49.785Z,-1.59
2018-12-16T02:31:17.238Z,-1.50
2018-12-16T02:33:44.648Z,-1.59
2018-12-16T02:36:12.057Z,-1.61
2018-12-16T02:38:39.451Z,-1.61
2018-12-16T02:41:06.958Z,-1.55
2018-12-16T02:43:34.427Z,-1.56
2018-12-16T02:46:01.895Z,-1.61
2018-12-16T02:48:29.435Z,-1.61
2018-12-16T02:50:56.850Z,-1.57
2018-12-16T02:53:24.243Z,-1.52
2018-12-16T02:55:51.712Z,-1.61
2018-12-16T02:58:19.163Z,-1.59
2018-12-16T03:00:46.721Z,-1.61
2018-12-16T03:03:14.255Z,-1.60
2018-12-16T03:05:41.659Z,-1.59
2018-12-16T03:08:09.079Z,-1.58
2018-12-16T03:10:36.654Z,-1.58
2018-12-16T03:13:04.108Z,-1.62
2018-12-16T03:15:31.558Z,-1.66
2018-12-16T03:17:58.955Z,-1.61
2018-12-16T03:20:26.430Z,-1.55
2018-12-16T03:22:53.934Z,-1.51
2018-12-16T03:25:21.382Z,-1.48
2018-12-16T03:27:48.847Z,-1.55
2018-12-16T03:30:16.409Z,-1.49
2018-12-16T03:32:43.960Z,-1.52
2018-12-16T03:35:11.518Z,-1.56
2018-12-16T03:37:38.976Z,-1.66
2018-12-16T03:40:07.152Z,-1.62
2018-12-16T03:42:34.609Z,-1.57
2018-12-16T03:45:02.162Z,-1.50
2018-12-16T03:47:29.633Z,-1.53
2018-12-16T03:49:57.088Z,-1.46
2018-12-16T03:52:24.537Z,-1.54
2018-12-16T03:54:52.006Z,-1.47
2018-12-16T03:57:19.403Z,-1.43
2018-12-16T03:59:46.801Z,-1.47
2018-12-16T04:02:14.203Z,-1.51
2018-12-16T04:04:41.717Z,-1.52
2018-12-16T04:07:09.122Z,-1.52
2018-12-16T04:09:36.527Z,-1.59
2018-12-16T04:12:03.993Z,-1.58
2018-12-16T04:14:31.452Z,-1.57
2018-12-16T04:16:59.001Z,-1.57
2018-12-16T04:19:26.470Z,-1.51
2018-12-16T04:21:53.877Z,-1.61
2018-12-16T04:24:21.381Z,-1.55
2018-12-16T04:26:48.790Z,-1.48
2018-12-16T04:29:16.191Z,-1.50
2018-12-16T04:31:43.590Z,-1.52
2018-12-16T04:34:11.006Z,-1.46
2018-12-16T04:36:38.549Z,-1.41
2018-12-16T04:39:06.147Z,-1.46
2018-12-16T04:41:33.576Z,-1.41
2018-12-16T04:44:01.054Z,-1.46
2018-12-16T04:46:28.590Z,-1.48
2018-12-16T04:48:55.988Z,-1.48
2018-12-16T04:51:23.478Z,-1.33
2018-12-16T04:53:51.063Z,-1.39
2018-12-16T04:56:18.509Z,-1.37
2018-12-16T04:58:45.906Z,-1.20
2018-12-16T05:01:13.322Z,-1.29
2018-12-16T05:03:40.715Z,-1.35
2018-12-16T05:06:08.238Z,-1.38
2018-12-16T05:08:35.698Z,-1.37
2018-12-16T05:11:03.146Z,-1.36
2018-12-16T05:13:30.647Z,-1.38
2018-12-16T05:15:58.055Z,-1.39
2018-12-16T05:18:25.455Z,-1.33
2018-12-16T05:20:52.874Z,-1.28
2018-12-16T05:23:20.273Z,-1.27
2018-12-16T05:25:47.677Z,-1.26
2018-12-16T05:28:15.143Z,-1.27
2018-12-16T05:30:42.538Z,-1.16
2018-12-16T05:33:10.051Z,-1.22
2018-12-16T05:35:37.450Z,-1.17
2018-12-16T05:38:04.872Z,-1.11
2018-12-16T05:40:32.326Z,-1.20
2018-12-16T05:42:59.786Z,-1.16
2018-12-16T05:45:27.184Z,-1.15
2018-12-16T05:47:54.695Z,-1.12
2018-12-16T05:50:22.146Z,-1.05
2018-12-16T05:52:49.606Z,-1.03
2018-12-16T05:55:17.065Z,-1.10
2018-12-16T05:57:44.478Z,-0.98
2018-12-16T06:00:11.886Z,-1.05
2018-12-16T06:02:39.288Z,-0.99
2018-12-16T06:05:06.688Z,-0.96
2018-12-16T06:07:34.089Z,-0.98
2018-12-16T06:10:01.491Z,-1.02
2018-12-16T06:12:28.971Z,-1.00
2018-12-16T06:14:56.508Z,-1.02
2018-12-16T06:17:23.914Z,-0.99
2018-12-16T06:19:51.386Z,-0.99
2018-12-16T06:22:18.850Z,-0.91
2018-12-16T06:24:46.246Z,-0.91
2018-12-16T06:27:13.714Z,-0.90
2018-12-16T06:29:42.326Z,-0.91
2018-12-16T06:32:09.735Z,-0.88
2018-12-16T06:34:37.126Z,-0.85
2018-12-16T06:37:04.544Z,-0.83
2018-12-16T06:39:32.003Z,-0.85
2018-12-16T06:41:59.396Z,-0.85
2018-12-16T06:44:26.812Z,-0.83
2018-12-16T06:46:54.262Z,-0.84
2018-12-16T06:49:21.730Z,-0.82
2018-12-16T06:51:49.182Z,-0.85
2018-12-16T06:54:16.651Z,-0.80
2018-12-16T06:56:44.046Z,-0.81
2018-12-16T06:59:11.442Z,-0.82
2018-12-16T07:01:38.844Z,-0.81
2018-12-16T07:04:06.253Z,-0.83
2018-12-16T07:06:33.714Z,-0.79
2018-12-16T07:09:01.111Z,-0.74
2018-12-16T07:11:28.506Z,-0.70
2018-12-16T07:13:55.911Z,-0.67
2018-12-16T07:16:23.318Z,-0.76
2018-12-16T07:18:50.790Z,-0.82
2018-12-16T07:21:18.250Z,-0.80
2018-12-16T07:23:45.786Z,-0.82
2018-12-16T07:26:13.289Z,-0.80
2018-12-16T07:28:40.730Z,-0.82
2018-12-16T07:31:08.178Z,-0.82
2018-12-16T07:33:35.644Z,-0.83
2018-12-16T07:36:03.039Z,-0.76
2018-12-16T07:38:30.434Z,-0.72
2018-12-16T07:40:57.911Z,-0.69
2018-12-16T07:43:25.315Z,-0.72
2018-12-16T07:45:52.824Z,-0.67
2018-12-16T07:48:20.484Z,-0.72
2018-12-16T07:50:47.883Z,-0.67
2018-12-16T07:53:15.400Z,-0.66
2018-12-16T07:55:42.798Z,-0.67
2018-12-16T07:58:10.209Z,-0.62
2018-12-16T08:00:38.275Z,-0.56
2018-12-16T08:03:05.953Z,-0.70
2018-12-16T08:05:33.501Z,-0.66
2018-12-16T08:08:00.887Z,-0.59
2018-12-16T08:10:28.292Z,-0.60
2018-12-16T08:12:55.763Z,-0.64
2018-12-16T08:15:23.228Z,-0.61
2018-12-16T08:17:50.675Z,-0.63
2018-12-16T08:20:18.133Z,-0.55
2018-12-16T08:22:45.590Z,-0.51
2018-12-16T08:25:13.050Z,-0.56
2018-12-16T08:27:40.644Z,-0.57
2018-12-16T08:30:08.274Z,-0.50
2018-12-16T08:32:35.721Z,-0.47
2018-12-16T08:35:03.696Z,-0.41
2018-12-16T08:37:31.150Z,-0.39
2018-12-16T08:39:58.555Z,-0.29
2018-12-16T08:42:25.946Z,-0.22
2018-12-16T08:44:53.342Z,-0.22
2018-12-16T08:47:20.739Z,-0.07
2018-12-16T08:49:48.234Z,-0.11
2018-12-16T08:52:15.682Z,0.01
2018-12-16T08:54:43.146Z,-0.07
2018-12-16T08:57:10.616Z,-0.09
2018-12-16T08:59:38.002Z,-0.08
2018-12-16T09:02:05.507Z,-0.11
2018-12-16T09:04:32.973Z,-0.09
2018-12-16T09:07:00.382Z,-0.02
2018-12-16T09:09:28.195Z,-0.03
2018-12-16T09:11:55.602Z,-0.05
2018-12-16T09:14:23.000Z,-0.09
2018-12-16T09:16:50.411Z,-0.11
2018-12-16T09:19:17.845Z,0.03
2018-12-16T09:21:45.300Z,0.17
2018-12-16T09:24:12.733Z,0.26
2018-12-16T09:26:40.147Z,0.23
2018-12-16T09:29:07.621Z,0.12
2018-12-16T09:31:35.025Z,0.08
2018-12-16T09:34:02.420Z,0.12
2018-12-16T09:36:29.922Z,0.12
2018-12-16T09:38:57.341Z,0.18
2018-12-16T09:41:24.811Z,0.07
2018-12-16T09:43:52.270Z,0.13
2018-12-16T09:46:19.767Z,0.16
2018-12-16T09:48:47.138Z,0.21
2018-12-16T09:51:14.545Z,0.11
2018-12-16T09:53:41.939Z,0.15
2018-12-16T09:56:09.472Z,0.12
2018-12-16T09:58:36.875Z,0.02
2018-12-16T10:01:04.376Z,0.02
2018-12-16T10:03:31.839Z,0.16
2018-12-16T10:05:59.283Z,0.17
2018-12-16T10:08:26.757Z,0.23
2018-12-16T10:10:54.204Z,0.19
2018-12-16T10:13:21.606Z,0.15
2018-12-16T10:15:48.998Z,0.14
2018-12-16T10:18:16.400Z,0.13
2018-12-16T10:20:43.781Z,0.24
2018-12-16T10:23:11.289Z,0.26
2018-12-16T10:25:38.673Z,0.11
2018-12-16T10:28:06.102Z,0.10
2018-12-16T10:30:33.555Z,0.20
2018-12-16T10:33:01.005Z,0.26
2018-12-16T10:35:28.400Z,0.34
2018-12-16T10:37:55.810Z,0.26
2018-12-16T10:40:23.198Z,0.35
2018-12-16T10:42:50.637Z,0.56
2018-12-16T10:45:18.044Z,0.52
2018-12-16T10:47:45.455Z,0.42
2018-12-16T10:50:12.852Z,0.52
2018-12-16T10:52:40.464Z,0.61
2018-12-16T10:55:07.909Z,0.53
2018-12-16T10:57:35.307Z,0.50
2018-12-16T11:00:02.803Z,0.49
2018-12-16T11:02:30.215Z,0.42
2018-12-16T11:04:57.614Z,0.40
2018-12-16T11:07:25.020Z,0.50
2018-12-16T11:09:52.457Z,0.68
2018-12-16T11:12:20.143Z,0.78
2018-12-16T11:14:47.542Z,0.71
2018-12-16T11:17:15.031Z,0.68
2018-12-16T11:19:42.426Z,0.71
2018-12-16T11:22:09.838Z,0.63
2018-12-16T11:24:37.251Z,0.65
2018-12-16T11:27:04.641Z,0.72
2018-12-16T11:29:32.107Z,0.71
2018-12-16T11:31:59.554Z,0.74
2018-12-16T11:34:27.022Z,0.77
2018-12-16T11:36:54.418Z,0.86
2018-12-16T11:39:21.802Z,0.72
2018-12-16T11:41:49.294Z,0.70
2018-12-16T11:44:16.730Z,0.61
2018-12-16T11:46:44.123Z,0.70
2018-12-16T11:49:11.502Z,0.77
2018-12-16T11:51:39.000Z,0.91
2018-12-16T11:54:06.399Z,0.92
2018-12-16T11:56:33.870Z,0.92
2018-12-16T11:59:01.262Z,0.86
2018-12-16T12:01:28.654Z,1.09
2018-12-16T12:03:56.084Z,1.25
2018-12-16T12:06:23.542Z,1.32
2018-12-16T12:08:50.993Z,1.21
2018-12-16T12:11:18.451Z,1.26
2018-12-16T12:13:45.850Z,1.21
2018-12-16T12:16:13.269Z,1.13
2018-12-16T12:18:40.698Z,1.33
2018-12-16T12:21:08.174Z,1.63
2018-12-16T12:23:35.735Z,1.50
2018-12-16T12:26:03.135Z,1.61
2018-12-16T12:28:30.630Z,1.44
2018-12-16T12:30:58.026Z,1.44
2018-12-16T12:33:25.419Z,1.26
2018-12-16T12:35:52.817Z,1.40
2018-12-16T12:38:20.267Z,1.42
2018-12-16T12:40:47.722Z,1.32
2018-12-16T12:43:15.195Z,1.19
2018-12-16T12:45:42.598Z,1.44
2018-12-16T12:48:10.006Z,1.58
2018-12-16T12:50:37.398Z,1.46
2018-12-16T12:53:04.799Z,1.36
2018-12-16T12:55:32.271Z,1.21
2018-12-16T12:57:59.736Z,1.18
2018-12-16T13:00:27.127Z,1.24
2018-12-16T13:02:54.534Z,1.21
2018-12-16T13:05:21.995Z,1.17
2018-12-16T13:07:49.374Z,1.24
2018-12-16T13:10:16.823Z,1.32
2018-12-16T13:12:44.299Z,1.36
2018-12-16T13:15:11.719Z,1.58
2018-12-16T13:17:39.179Z,1.69
2018-12-16T13:20:06.934Z,1.49
2018-12-16T13:22:34.400Z,1.55
2018-12-16T13:25:13.831Z,1.65
2018-12-16T13:27:41.291Z,1.91
2018-12-16T13:30:08.711Z,2.05
2018-12-16T13:32:36.091Z,2.22
2018-12-16T13:35:04.373Z,2.34
2018-12-16T13:37:31.866Z,2.23
2018-12-16T13:39:59.286Z,2.02
2018-12-16T13:42:26.756Z,1.62
2018-12-16T13:44:54.195Z,1.66
2018-12-16T13:47:21.658Z,1.54
2018-12-16T13:49:49.046Z,1.33
2018-12-16T13:52:16.450Z,1.44
2018-12-16T13:54:44.030Z,1.44
2018-12-16T13:57:11.418Z,1.59
2018-12-16T13:59:38.883Z,1.89
2018-12-16T14:02:06.286Z,1.95
2018-12-16T14:04:33.759Z,1.91
2018-12-16T14:07:01.156Z,1.89
2018-12-16T14:09:28.549Z,2.01
2018-12-16T14:11:55.963Z,1.75
2018-12-16T14:14:23.375Z,1.79
2018-12-16T14:16:50.939Z,1.57
2018-12-16T14:19:18.390Z,1.77
2018-12-16T14:21:45.842Z,1.90
2018-12-16T14:24:13.334Z,1.65
2018-12-16T14:26:40.765Z,1.76
2018-12-16T14:29:08.227Z,1.80
2018-12-16T14:31:35.677Z,1.69
2018-12-16T14:34:03.139Z,1.54
2018-12-16T14:36:30.596Z,1.44
2018-12-16T14:38:58.047Z,1.48
2018-12-16T14:41:25.439Z,1.51
2018-12-16T14:43:52.858Z,1.32
2018-12-16T14:46:20.314Z,1.44
2018-12-16T14:48:47.776Z,1.40
2018-12-16T14:51:15.166Z,1.44
2018-12-16T14:53:42.592Z,1.62
2018-12-16T14:56:10.039Z,1.74
2018-12-16T14:58:37.494Z,1.63
2018-12-16T15:01:05.063Z,1.64
2018-12-16T15:03:32.515Z,1.62
2018-12-16T15:05:59.966Z,1.85
2018-12-16T15:08:27.431Z,1.81
2018-12-16T15:10:54.820Z,1.84
2018-12-16T15:13:22.217Z,1.63
2018-12-16T15:15:49.694Z,1.68
2018-12-16T15:18:17.142Z,1.62
2018-12-16T15:20:44.610Z,1.61
2018-12-16T15:23:12.004Z,1.48
2018-12-16T15:25:39.398Z,1.53
2018-12-16T15:28:06.878Z,1.64
2018-12-16T15:30:34.335Z,1.59
2018-12-16T15:33:01.736Z,1.61
2018-12-16T15:35:29.144Z,1.57
2018-12-16T15:37:56.538Z,1.51
2018-12-16T15:40:23.937Z,1.56
2018-12-16T15:42:51.409Z,1.46
2018-12-16T15:45:18.807Z,1.52
2018-12-16T15:47:46.223Z,1.71
2018-12-16T15:50:13.606Z,1.65
2018-12-16T15:52:41.034Z,1.84
2018-12-16T15:55:09.422Z,1.73
2018-12-16T15:57:36.814Z,1.66
2018-12-16T16:00:06.269Z,1.82
2018-12-16T16:02:33.731Z,2.01
2018-12-16T16:05:01.132Z,2.05
2018-12-16T16:07:28.526Z,2.22
2018-12-16T16:09:55.927Z,2.07
2018-12-16T16:12:23.358Z,2.11
2018-12-16T16:14:50.769Z,1.98
2018-12-16T16:17:18.175Z,2.22
2018-12-16T16:19:45.581Z,2.16
2018-12-16T16:22:12.963Z,2.31
2018-12-16T16:24:40.362Z,2.39
2018-12-16T16:27:07.750Z,2.36
2018-12-16T16:29:35.142Z,2.35
2018-12-16T16:32:02.610Z,2.30
2018-12-16T16:34:30.050Z,2.12
2018-12-16T16:36:57.441Z,2.20
2018-12-16T16:39:24.837Z,2.11
2018-12-16T16:41:52.242Z,2.21
2018-12-16T16:44:19.650Z,2.16
2018-12-16T16:46:47.099Z,2.13
2018-12-16T16:49:14.483Z,2.09
2018-12-16T16:51:41.874Z,1.90
2018-12-16T16:54:09.271Z,1.87
2018-12-16T16:56:36.746Z,1.71
2018-12-16T16:59:04.210Z,1.73
2018-12-16T17:01:31.666Z,1.52
2018-12-16T17:03:59.126Z,1.54
2018-12-16T17:06:26.511Z,1.37
2018-12-16T17:08:53.906Z,1.39
2018-12-16T17:11:21.806Z,1.25
2018-12-16T17:13:49.439Z,1.40
2018-12-16T17:16:16.923Z,1.30
2018-12-16T17:18:44.560Z,1.22
2018-12-16T17:21:11.959Z,1.19
2018-12-16T17:23:39.351Z,1.14
2018-12-16T17:26:06.747Z,1.14
2018-12-16T17:28:34.134Z,1.30
2018-12-16T17:31:01.531Z,1.41
2018-12-16T17:33:28.939Z,1.45
2018-12-16T17:35:56.341Z,1.33
2018-12-16T17:38:23.776Z,1.26
2018-12-16T17:40:51.191Z,1.53
2018-12-16T17:43:18.667Z,1.28
2018-12-16T17:45:46.067Z,1.49
2018-12-16T17:48:13.461Z,1.66
2018-12-16T17:50:40.860Z,1.63
2018-12-16T17:53:08.267Z,1.56
2018-12-16T17:55:35.662Z,1.41
2018-12-16T17:58:03.071Z,1.42
2018-12-16T18:00:30.480Z,1.37
2018-12-16T18:02:57.865Z,1.16
2018-12-16T18:05:25.266Z,1.05
2018-12-16T18:07:52.652Z,0.99
2018-12-16T18:10:20.155Z,0.92
2018-12-16T18:12:47.919Z,1.13
2018-12-16T18:15:15.451Z,1.12
2018-12-16T18:17:42.882Z,1.08
2018-12-16T18:20:10.382Z,1.00
2018-12-16T18:22:37.847Z,0.88
2018-12-16T18:25:05.815Z,0.80
2018-12-16T18:27:33.194Z,1.10
2018-12-16T18:30:00.610Z,1.15
2018-12-16T18:32:28.004Z,1.23
2018-12-16T18:34:56.491Z,1.16
2018-12-16T18:37:23.927Z,1.08
2018-12-16T18:39:51.332Z,1.02
2018-12-16T18:42:18.774Z,0.91
2018-12-16T18:44:46.190Z,0.92
2018-12-16T18:47:13.647Z,1.11
2018-12-16T18:49:41.115Z,1.07
2018-12-16T18:52:08.557Z,1.20
2018-12-16T18:54:36.013Z,1.33
2018-12-16T18:57:07.126Z,1.49
2018-12-16T18:59:32.826Z,1.54
2018-12-16T19:02:00.366Z,1.51
2018-12-16T19:04:27.781Z,1.65
2018-12-16T19:06:55.410Z,1.33
2018-12-16T19:09:22.938Z,1.40
2018-12-16T19:11:50.364Z,1.38
2018-12-16T19:14:17.767Z,1.26
2018-12-16T19:16:45.214Z,1.33
2018-12-16T19:19:13.044Z,1.37
2018-12-16T19:21:40.527Z,1.35
2018-12-16T19:24:07.916Z,1.44
2018-12-16T19:26:35.314Z,1.53
2018-12-16T19:29:02.697Z,1.48
2018-12-16T19:31:30.106Z,1.40
2018-12-16T19:33:57.486Z,1.44
2018-12-16T19:36:24.934Z,1.32
2018-12-16T19:38:52.379Z,1.44
2018-12-16T19:41:19.843Z,1.37
2018-12-16T19:43:47.235Z,1.38
2018-12-16T19:46:14.638Z,1.23
2018-12-16T19:48:42.031Z,1.44
2018-12-16T19:51:09.474Z,1.70
2018-12-16T19:53:36.872Z,1.82
2018-12-16T19:56:04.371Z,1.71
2018-12-16T19:58:32.066Z,1.63
2018-12-16T20:00:59.487Z,1.77
2018-12-16T20:03:26.960Z,1.66
2018-12-16T20:06:00.140Z,1.57
2018-12-16T20:08:27.537Z,1.49
2018-12-16T20:10:54.958Z,1.27
2018-12-16T20:13:22.410Z,1.29
2018-12-16T20:15:49.865Z,1.35
2018-12-16T20:18:17.326Z,1.53
2018-12-16T20:20:44.731Z,1.64
2018-12-16T20:23:12.127Z,1.64
2018-12-16T20:25:39.515Z,1.72
2018-12-16T20:28:06.942Z,1.56
2018-12-16T20:30:34.403Z,1.53
2018-12-16T20:33:01.858Z,1.56
2018-12-16T20:35:29.464Z,1.33
2018-12-16T20:37:56.874Z,1.40
2018-12-16T20:40:24.767Z,1.55
2018-12-16T20:42:52.382Z,1.72
2018-12-16T20:45:19.859Z,1.66
2018-12-16T20:47:47.327Z,1.73
2018-12-16T20:50:14.829Z,1.64
2018-12-16T20:52:42.331Z,1.72
2018-12-16T20:55:09.786Z,1.85
2018-12-16T20:57:37.247Z,1.80
2018-12-16T21:00:05.644Z,1.72
2018-12-16T21:02:33.079Z,1.75
2018-12-16T21:05:00.474Z,1.75
2018-12-16T21:07:27.885Z,1.80
2018-12-16T21:09:55.346Z,1.69
2018-12-16T21:12:28.480Z,1.90
2018-12-16T21:15:01.610Z,2.09
2018-12-16T21:17:34.564Z,2.11
2018-12-16T21:20:01.999Z,2.15
2018-12-16T21:22:29.447Z,2.08
2018-12-16T21:24:56.888Z,2.22
2018-12-16T21:27:26.094Z,2.22
2018-12-16T21:29:53.806Z,2.11
2018-12-16T21:32:21.202Z,2.06
2018-12-16T21:34:48.595Z,2.10
2018-12-16T21:37:16.011Z,2.26
2018-12-16T21:39:43.462Z,2.26
2018-12-16T21:42:10.928Z,2.06
2018-12-16T21:44:38.326Z,2.09
2018-12-16T21:47:05.841Z,1.89
2018-12-16T21:49:33.290Z,2.04
2018-12-16T21:52:00.683Z,1.94
2018-12-16T21:54:28.098Z,2.15
2018-12-16T21:56:55.566Z,2.06
2018-12-16T21:59:23.082Z,2.00
2018-12-16T22:01:50.479Z,1.98
2018-12-16T22:04:17.925Z,2.09
2018-12-16T22:06:45.330Z,2.10
2018-12-16T22:09:12.735Z,2.21
2018-12-16T22:11:40.203Z,2.23
2018-12-16T22:14:07.623Z,2.41
2018-12-16T22:16:35.026Z,2.31
2018-12-16T22:19:02.446Z,2.43
2018-12-16T22:21:29.936Z,2.43
2018-12-16T22:23:57.383Z,2.56
2018-12-16T22:26:24.774Z,2.67
2018-12-16T22:28:52.255Z,2.71
2018-12-16T22:31:19.643Z,2.57
2018-12-16T22:33:47.061Z,2.51
2018-12-16T22:36:14.458Z,2.46
2018-12-16T22:38:41.927Z,2.65
2018-12-16T22:41:09.331Z,2.73
2018-12-16T22:43:36.834Z,2.79
2018-12-16T22:46:04.302Z,2.85
2018-12-16T22:48:32.034Z,2.73
2018-12-16T22:50:59.426Z,2.67
2018-12-16T22:53:26.870Z,2.36
2018-12-16T22:55:54.264Z,2.16
2018-12-16T22:58:21.637Z,2.24
2018-12-16T23:03:55.924Z,2.40
2018-12-16T23:06:23.635Z,2.44
2018-12-16T23:08:51.035Z,2.50
2018-12-16T23:11:18.483Z,2.55
2018-12-16T23:13:45.951Z,2.53
2018-12-16T23:16:13.363Z,2.63
2018-12-16T23:18:40.855Z,2.56
2018-12-16T23:21:08.318Z,2.69
2018-12-16T23:23:35.696Z,2.68
2018-12-16T23:26:03.117Z,2.55
2018-12-16T23:28:30.618Z,2.73
2018-12-16T23:30:58.028Z,2.97
2018-12-16T23:33:25.496Z,2.95
2018-12-16T23:35:52.890Z,3.13
2018-12-16T23:38:20.402Z,3.16
2018-12-16T23:40:47.815Z,3.22
2018-12-16T23:43:15.242Z,3.33
2018-12-16T23:45:42.690Z,3.42
2018-12-16T23:48:10.842Z,3.52
2018-12-16T23:50:38.246Z,3.61
2018-12-16T23:53:05.657Z,3.66
2018-12-16T23:55:33.148Z,3.66
2018-12-16T23:58:01.456Z,3.73
